Airfield :
LOGIN :

Register | Disclaimer

   EN    FR    IT 

 










Legend :    VFR   Marginal VFR   IFR   Intensive IFR   Very Intensive IFR
Visi :
Ceiling :
>= 8 km
>= 3000ft
5 to 8 km
1000 to 3000 ft
1500m to 5 km
500 to 1000 ft
800 to 1500m
200 to 500 ft
< 800m
< 200 ft
Symbols :   Thunderstorms  Fog  Heavy snow  Heavy precipitations  Wind > 20 kt
SIGMETs :     Misc.  Thunderstorms  Icing  Turbulence  Mountain Waves  Volcanic Ashes






- Airport Elevation : 392 ft
- IATA code : CDG


LFPG - Paris-Aeroport Charles De Gaulle

CURRENT METAR :
  • 181330Z 04006KT 350V070 CAVOK 26/15 Q1020 NOSIG

EXPIRED METARs :
  • 181300Z 09006KT 040V150 CAVOK 26/14 Q1020 NOSIG
  • 181230Z 08005KT 020V130 CAVOK 26/15 Q1020 NOSIG
  • 181200Z 10004KT 040V160 CAVOK 25/15 Q1021 NOSIG
  • 181130Z 03006KT 330V070 CAVOK 24/16 Q1021 NOSIG
  • 181100Z 05006KT 360V090 CAVOK 24/15 Q1021 NOSIG

TAF TAF LFPG
Valid from the 18 at 12:00 until the 19 at 18:00 UTC


181100Z 1812/1918 02008KT CAVOK TX29/1815Z TN19/1905Z
PROB30
TEMPO 1822/1904 4000 -TSRA SCT040CB
BECMG 1906/1908 28010KT
PROB40
TEMPO 1910/1912 28015G25KT 4000 -TSRA SCT035CB
ATIS : +33 1 48 62 10 92



MET'MAP, your aeronautical weather chart ! - Copyright ORBIFLY December 2007 - Disclaimer

ORBIFLY MET'MAP TEAM :

Programming & Development : Alexandra Zaïnal
Original concept : Baudouin d'Aumeries
Technical & hardware support : Manuel Goepfert
Assistance : Marc-Olivier Méhu

Contact : metmap@orbifly.com




SOURCES & CREDITS :

   NOAA